sensor_id;sensor_type;location;lat;lon;timestamp;temperature;humidity
21627;DHT22;10975;47.872;12.972;2023-05-10T00:00:47;14.60;99.90
21627;DHT22;10975;47.872;12.972;2023-05-10T00:03:14;14.50;99.90
21627;DHT22;10975;47.872;12.972;2023-05-10T00:05:41;14.40;99.90
21627;DHT22;10975;47.872;12.972;2023-05-10T00:08:08;14.40;99.90
21627;DHT22;10975;47.872;12.972;2023-05-10T00:10:34;14.40;99.90
21627;DHT22;10975;47.872;12.972;2023-05-10T00:13:01;14.30;99.90
21627;DHT22;10975;47.872;12.972;2023-05-10T00:15:28;14.30;99.90
21627;DHT22;10975;47.872;12.972;2023-05-10T00:17:56;14.30;99.90
21627;DHT22;10975;47.872;12.972;2023-05-10T00:20:23;14.30;99.90
21627;DHT22;10975;47.872;12.972;2023-05-10T00:22:50;14.30;99.90
21627;DHT22;10975;47.872;12.972;2023-05-10T00:25:16;14.30;99.90
21627;DHT22;10975;47.872;12.972;2023-05-10T00:27:43;14.30;99.90
21627;DHT22;10975;47.872;12.972;2023-05-10T00:30:10;14.20;99.90
21627;DHT22;10975;47.872;12.972;2023-05-10T00:32:36;14.20;99.90
21627;DHT22;10975;47.872;12.972;2023-05-10T00:35:03;14.30;99.90
21627;DHT22;10975;47.872;12.972;2023-05-10T00:37:30;14.30;99.90
21627;DHT22;10975;47.872;12.972;2023-05-10T00:39:56;14.40;99.90
21627;DHT22;10975;47.872;12.972;2023-05-10T00:42:23;14.40;99.90
21627;DHT22;10975;47.872;12.972;2023-05-10T00:44:50;14.40;99.90
21627;DHT22;10975;47.872;12.972;2023-05-10T00:47:17;14.50;99.90
21627;DHT22;10975;47.872;12.972;2023-05-10T00:49:44;14.50;99.90
21627;DHT22;10975;47.872;12.972;2023-05-10T00:52:11;14.50;99.90
21627;DHT22;10975;47.872;12.972;2023-05-10T00:54:37;14.50;99.90
21627;DHT22;10975;47.872;12.972;2023-05-10T00:57:04;14.50;99.90
21627;DHT22;10975;47.872;12.972;2023-05-10T00:59:31;14.50;99.90
21627;DHT22;10975;47.872;12.972;2023-05-10T01:01:58;14.40;99.90
21627;DHT22;10975;47.872;12.972;2023-05-10T01:04:25;14.40;99.90
21627;DHT22;10975;47.872;12.972;2023-05-10T01:06:52;14.40;99.90
21627;DHT22;10975;47.872;12.972;2023-05-10T01:09:20;14.40;99.90
21627;DHT22;10975;47.872;12.972;2023-05-10T01:11:47;14.40;99.90
21627;DHT22;10975;47.872;12.972;2023-05-10T01:14:15;14.40;99.90
21627;DHT22;10975;47.872;12.972;2023-05-10T01:16:43;14.40;99.90
21627;DHT22;10975;47.872;12.972;2023-05-10T01:19:19;14.40;99.90
21627;DHT22;10975;47.872;12.972;2023-05-10T01:21:50;14.40;99.90
21627;DHT22;10975;47.872;12.972;2023-05-10T01:24:25;14.40;99.90
21627;DHT22;10975;47.872;12.972;2023-05-10T01:39:11;14.50;99.90
21627;DHT22;10975;47.872;12.972;2023-05-10T01:41:47;14.40;99.90
21627;DHT22;10975;47.872;12.972;2023-05-10T01:44:33;14.40;99.90
21627;DHT22;10975;47.872;12.972;2023-05-10T01:48:03;14.50;99.90
21627;DHT22;10975;47.872;12.972;2023-05-10T01:49:59;14.50;99.90
21627;DHT22;10975;47.872;12.972;2023-05-10T01:52:32;14.50;99.90
21627;DHT22;10975;47.872;12.972;2023-05-10T01:55:04;14.50;99.90
21627;DHT22;10975;47.872;12.972;2023-05-10T01:57:46;14.50;99.90
21627;DHT22;10975;47.872;12.972;2023-05-10T02:00:15;14.40;99.90
21627;DHT22;10975;47.872;12.972;2023-05-10T02:02:46;14.40;99.90
21627;DHT22;10975;47.872;12.972;2023-05-10T02:05:14;14.40;99.90
21627;DHT22;10975;47.872;12.972;2023-05-10T02:07:41;14.40;99.90
21627;DHT22;10975;47.872;12.972;2023-05-10T02:10:09;14.40;99.90
21627;DHT22;10975;47.872;12.972;2023-05-10T02:12:37;14.40;99.90
21627;DHT22;10975;47.872;12.972;2023-05-10T02:15:05;14.40;99.90
21627;DHT22;10975;47.872;12.972;2023-05-10T02:17:34;14.30;99.90
21627;DHT22;10975;47.872;12.972;2023-05-10T02:20:02;14.30;99.90
21627;DHT22;10975;47.872;12.972;2023-05-10T02:22:30;14.30;99.90
21627;DHT22;10975;47.872;12.972;2023-05-10T02:24:58;14.40;99.90
21627;DHT22;10975;47.872;12.972;2023-05-10T02:27:25;14.30;99.90
21627;DHT22;10975;47.872;12.972;2023-05-10T02:29:53;14.30;99.90
21627;DHT22;10975;47.872;12.972;2023-05-10T02:32:21;14.30;99.90
21627;DHT22;10975;47.872;12.972;2023-05-10T02:34:48;14.20;99.90
21627;DHT22;10975;47.872;12.972;2023-05-10T02:37:21;14.30;99.90
21627;DHT22;10975;47.872;12.972;2023-05-10T02:39:52;14.30;99.90
21627;DHT22;10975;47.872;12.972;2023-05-10T02:42:22;14.30;99.90
21627;DHT22;10975;47.872;12.972;2023-05-10T02:44:50;14.30;99.90
21627;DHT22;10975;47.872;12.972;2023-05-10T02:47:17;14.30;99.90
21627;DHT22;10975;47.872;12.972;2023-05-10T02:49:44;14.30;99.90
21627;DHT22;10975;47.872;12.972;2023-05-10T02:52:11;14.30;99.90
21627;DHT22;10975;47.872;12.972;2023-05-10T02:54:46;14.30;99.90
21627;DHT22;10975;47.872;12.972;2023-05-10T02:57:16;14.30;99.90
21627;DHT22;10975;47.872;12.972;2023-05-10T02:59:45;14.30;99.90
21627;DHT22;10975;47.872;12.972;2023-05-10T03:02:12;14.30;99.90
21627;DHT22;10975;47.872;12.972;2023-05-10T03:04:39;14.30;99.90
21627;DHT22;10975;47.872;12.972;2023-05-10T03:07:05;14.20;99.90
21627;DHT22;10975;47.872;12.972;2023-05-10T03:09:33;14.20;99.90
21627;DHT22;10975;47.872;12.972;2023-05-10T03:12:07;14.20;99.90
21627;DHT22;10975;47.872;12.972;2023-05-10T03:19:55;14.10;99.90
21627;DHT22;10975;47.872;12.972;2023-05-10T03:22:39;14.10;99.90
21627;DHT22;10975;47.872;12.972;2023-05-10T03:25:07;14.20;99.90
21627;DHT22;10975;47.872;12.972;2023-05-10T03:27:35;14.20;99.90
21627;DHT22;10975;47.872;12.972;2023-05-10T03:30:03;14.20;99.90
21627;DHT22;10975;47.872;12.972;2023-05-10T03:32:31;14.30;99.90
21627;DHT22;10975;47.872;12.972;2023-05-10T03:35:00;14.30;99.90
21627;DHT22;10975;47.872;12.972;2023-05-10T03:37:28;14.20;99.90
21627;DHT22;10975;47.872;12.972;2023-05-10T03:39:55;14.20;99.90
21627;DHT22;10975;47.872;12.972;2023-05-10T03:42:21;14.20;99.90
21627;DHT22;10975;47.872;12.972;2023-05-10T03:44:48;14.20;99.90
21627;DHT22;10975;47.872;12.972;2023-05-10T03:47:16;14.20;99.90
21627;DHT22;10975;47.872;12.972;2023-05-10T03:49:43;14.20;99.90
21627;DHT22;10975;47.872;12.972;2023-05-10T03:52:09;14.20;99.90
21627;DHT22;10975;47.872;12.972;2023-05-10T03:54:36;14.20;99.90
21627;DHT22;10975;47.872;12.972;2023-05-10T03:57:03;14.10;99.90
21627;DHT22;10975;47.872;12.972;2023-05-10T03:59:30;14.10;99.90
21627;DHT22;10975;47.872;12.972;2023-05-10T04:01:56;14.10;99.90
21627;DHT22;10975;47.872;12.972;2023-05-10T04:04:23;14.10;99.90
21627;DHT22;10975;47.872;12.972;2023-05-10T04:06:50;14.20;99.90
21627;DHT22;10975;47.872;12.972;2023-05-10T04:09:16;14.10;99.90
21627;DHT22;10975;47.872;12.972;2023-05-10T04:11:43;14.20;99.90
21627;DHT22;10975;47.872;12.972;2023-05-10T04:14:10;14.20;99.90
21627;DHT22;10975;47.872;12.972;2023-05-10T04:16:37;14.20;99.90
21627;DHT22;10975;47.872;12.972;2023-05-10T04:19:03;14.20;99.90
21627;DHT22;10975;47.872;12.972;2023-05-10T04:21:30;14.30;99.90
21627;DHT22;10975;47.872;12.972;2023-05-10T04:23:57;14.30;99.90
21627;DHT22;10975;47.872;12.972;2023-05-10T04:26:23;14.30;99.90
21627;DHT22;10975;47.872;12.972;2023-05-10T04:28:52;14.30;99.90
21627;DHT22;10975;47.872;12.972;2023-05-10T04:31:18;14.30;99.90
21627;DHT22;10975;47.872;12.972;2023-05-10T04:33:45;14.30;99.90
21627;DHT22;10975;47.872;12.972;2023-05-10T04:36:12;14.30;99.90
21627;DHT22;10975;47.872;12.972;2023-05-10T04:38:38;14.40;99.90
21627;DHT22;10975;47.872;12.972;2023-05-10T04:41:06;14.40;99.90
21627;DHT22;10975;47.872;12.972;2023-05-10T04:43:33;14.40;99.90
21627;DHT22;10975;47.872;12.972;2023-05-10T04:46:00;14.40;99.90
21627;DHT22;10975;47.872;12.972;2023-05-10T04:48:27;14.40;99.90
21627;DHT22;10975;47.872;12.972;2023-05-10T04:50:53;14.50;99.90
21627;DHT22;10975;47.872;12.972;2023-05-10T04:53:20;14.50;99.90
21627;DHT22;10975;47.872;12.972;2023-05-10T04:55:47;14.50;99.90
21627;DHT22;10975;47.872;12.972;2023-05-10T04:58:14;14.50;99.90
21627;DHT22;10975;47.872;12.972;2023-05-10T05:00:41;14.50;99.90
21627;DHT22;10975;47.872;12.972;2023-05-10T05:03:08;14.60;99.90
21627;DHT22;10975;47.872;12.972;2023-05-10T05:05:36;14.60;99.90
21627;DHT22;10975;47.872;12.972;2023-05-10T05:08:02;14.60;99.90
21627;DHT22;10975;47.872;12.972;2023-05-10T05:10:29;14.60;99.90
21627;DHT22;10975;47.872;12.972;2023-05-10T05:12:56;14.60;99.90
21627;DHT22;10975;47.872;12.972;2023-05-10T05:15:23;14.50;99.90
21627;DHT22;10975;47.872;12.972;2023-05-10T05:17:49;14.50;99.90
21627;DHT22;10975;47.872;12.972;2023-05-10T05:20:16;14.40;99.90
21627;DHT22;10975;47.872;12.972;2023-05-10T05:22:44;14.40;99.90
21627;DHT22;10975;47.872;12.972;2023-05-10T05:25:10;14.40;99.90
21627;DHT22;10975;47.872;12.972;2023-05-10T05:27:38;14.50;99.90
21627;DHT22;10975;47.872;12.972;2023-05-10T05:30:05;14.50;99.90
21627;DHT22;10975;47.872;12.972;2023-05-10T05:32:31;14.60;99.90
21627;DHT22;10975;47.872;12.972;2023-05-10T05:34:58;14.60;99.90
21627;DHT22;10975;47.872;12.972;2023-05-10T05:37:25;14.60;99.90
21627;DHT22;10975;47.872;12.972;2023-05-10T05:39:51;14.70;99.90
21627;DHT22;10975;47.872;12.972;2023-05-10T05:42:18;14.80;99.90
21627;DHT22;10975;47.872;12.972;2023-05-10T05:44:45;14.90;99.90
21627;DHT22;10975;47.872;12.972;2023-05-10T05:47:12;14.90;99.90
21627;DHT22;10975;47.872;12.972;2023-05-10T05:49:38;14.90;99.90
21627;DHT22;10975;47.872;12.972;2023-05-10T05:52:06;14.90;99.90
21627;DHT22;10975;47.872;12.972;2023-05-10T05:54:32;14.90;99.90
21627;DHT22;10975;47.872;12.972;2023-05-10T05:56:59;14.90;99.90
21627;DHT22;10975;47.872;12.972;2023-05-10T05:59:27;14.90;99.90
21627;DHT22;10975;47.872;12.972;2023-05-10T06:01:54;14.90;99.90
21627;DHT22;10975;47.872;12.972;2023-05-10T06:04:20;15.00;99.90
21627;DHT22;10975;47.872;12.972;2023-05-10T06:06:47;15.00;99.90
21627;DHT22;10975;47.872;12.972;2023-05-10T06:09:14;15.00;99.90
21627;DHT22;10975;47.872;12.972;2023-05-10T06:11:41;15.00;99.90
21627;DHT22;10975;47.872;12.972;2023-05-10T06:14:07;15.00;99.90
21627;DHT22;10975;47.872;12.972;2023-05-10T06:16:34;15.00;99.90
21627;DHT22;10975;47.872;12.972;2023-05-10T06:19:01;15.10;99.90
21627;DHT22;10975;47.872;12.972;2023-05-10T06:21:28;15.10;99.90
21627;DHT22;10975;47.872;12.972;2023-05-10T06:23:55;15.20;99.90
21627;DHT22;10975;47.872;12.972;2023-05-10T06:26:22;15.20;99.90
21627;DHT22;10975;47.872;12.972;2023-05-10T06:28:49;15.20;99.90
21627;DHT22;10975;47.872;12.972;2023-05-10T06:31:15;15.30;99.90
21627;DHT22;10975;47.872;12.972;2023-05-10T06:33:42;15.40;99.90
21627;DHT22;10975;47.872;12.972;2023-05-10T06:36:09;15.50;99.90
21627;DHT22;10975;47.872;12.972;2023-05-10T06:38:36;15.60;99.90
21627;DHT22;10975;47.872;12.972;2023-05-10T06:41:02;15.60;99.90
21627;DHT22;10975;47.872;12.972;2023-05-10T06:43:29;15.60;99.90
21627;DHT22;10975;47.872;12.972;2023-05-10T06:45:56;15.70;99.90
21627;DHT22;10975;47.872;12.972;2023-05-10T06:48:23;15.70;99.90
21627;DHT22;10975;47.872;12.972;2023-05-10T06:50:49;15.70;99.90
21627;DHT22;10975;47.872;12.972;2023-05-10T06:53:16;15.70;99.90
21627;DHT22;10975;47.872;12.972;2023-05-10T06:55:43;15.80;99.90
21627;DHT22;10975;47.872;12.972;2023-05-10T06:58:09;15.80;99.90
21627;DHT22;10975;47.872;12.972;2023-05-10T07:00:36;15.80;99.90
21627;DHT22;10975;47.872;12.972;2023-05-10T07:03:07;15.90;99.90
21627;DHT22;10975;47.872;12.972;2023-05-10T07:05:33;15.90;99.90
21627;DHT22;10975;47.872;12.972;2023-05-10T07:08:01;15.90;99.90
21627;DHT22;10975;47.872;12.972;2023-05-10T07:10:28;15.80;99.90
21627;DHT22;10975;47.872;12.972;2023-05-10T07:12:55;15.70;99.90
21627;DHT22;10975;47.872;12.972;2023-05-10T07:15:21;15.60;99.90
21627;DHT22;10975;47.872;12.972;2023-05-10T07:17:48;15.60;99.90
21627;DHT22;10975;47.872;12.972;2023-05-10T07:20:15;15.70;99.90
21627;DHT22;10975;47.872;12.972;2023-05-10T07:22:42;15.70;99.90
21627;DHT22;10975;47.872;12.972;2023-05-10T07:25:08;15.70;99.90
21627;DHT22;10975;47.872;12.972;2023-05-10T07:27:35;15.70;99.90
21627;DHT22;10975;47.872;12.972;2023-05-10T07:30:02;15.60;99.90
21627;DHT22;10975;47.872;12.972;2023-05-10T07:32:29;15.60;99.90
21627;DHT22;10975;47.872;12.972;2023-05-10T07:34:55;15.60;99.90
21627;DHT22;10975;47.872;12.972;2023-05-10T07:37:22;15.60;99.90
21627;DHT22;10975;47.872;12.972;2023-05-10T07:39:49;15.60;99.90
21627;DHT22;10975;47.872;12.972;2023-05-10T07:42:15;15.70;99.90
21627;DHT22;10975;47.872;12.972;2023-05-10T07:44:42;15.70;99.90
21627;DHT22;10975;47.872;12.972;2023-05-10T07:47:09;15.70;99.90
21627;DHT22;10975;47.872;12.972;2023-05-10T07:49:36;15.70;99.90
21627;DHT22;10975;47.872;12.972;2023-05-10T07:52:03;15.70;99.90
21627;DHT22;10975;47.872;12.972;2023-05-10T07:54:29;15.70;99.90
21627;DHT22;10975;47.872;12.972;2023-05-10T07:56:56;15.70;99.90
21627;DHT22;10975;47.872;12.972;2023-05-10T07:59:23;15.60;99.90
21627;DHT22;10975;47.872;12.972;2023-05-10T08:01:50;15.60;99.90
21627;DHT22;10975;47.872;12.972;2023-05-10T08:04:16;15.60;99.90
21627;DHT22;10975;47.872;12.972;2023-05-10T08:06:43;15.50;99.90
21627;DHT22;10975;47.872;12.972;2023-05-10T08:09:10;15.40;99.90
21627;DHT22;10975;47.872;12.972;2023-05-10T08:11:37;15.30;99.90
21627;DHT22;10975;47.872;12.972;2023-05-10T08:14:04;15.30;99.90
21627;DHT22;10975;47.872;12.972;2023-05-10T08:16:30;15.30;99.90
21627;DHT22;10975;47.872;12.972;2023-05-10T08:18:58;15.40;99.90
21627;DHT22;10975;47.872;12.972;2023-05-10T08:21:25;15.40;99.90
21627;DHT22;10975;47.872;12.972;2023-05-10T08:23:52;15.50;99.90
21627;DHT22;10975;47.872;12.972;2023-05-10T08:26:19;15.50;99.90
21627;DHT22;10975;47.872;12.972;2023-05-10T08:28:47;15.50;99.90
21627;DHT22;10975;47.872;12.972;2023-05-10T08:31:14;15.50;99.90
21627;DHT22;10975;47.872;12.972;2023-05-10T08:33:42;15.50;99.90
21627;DHT22;10975;47.872;12.972;2023-05-10T08:36:10;15.40;99.90
21627;DHT22;10975;47.872;12.972;2023-05-10T08:38:37;15.40;99.90
21627;DHT22;10975;47.872;12.972;2023-05-10T08:41:04;15.30;99.90
21627;DHT22;10975;47.872;12.972;2023-05-10T08:43:31;15.50;99.90
21627;DHT22;10975;47.872;12.972;2023-05-10T08:46:01;15.60;99.90
21627;DHT22;10975;47.872;12.972;2023-05-10T08:48:29;15.50;99.90
21627;DHT22;10975;47.872;12.972;2023-05-10T08:50:57;15.50;99.90
21627;DHT22;10975;47.872;12.972;2023-05-10T08:53:25;15.60;99.90
21627;DHT22;10975;47.872;12.972;2023-05-10T08:55:53;15.60;99.90
21627;DHT22;10975;47.872;12.972;2023-05-10T08:58:20;15.60;99.90
21627;DHT22;10975;47.872;12.972;2023-05-10T09:00:48;15.50;99.90
21627;DHT22;10975;47.872;12.972;2023-05-10T09:03:15;15.60;99.90
21627;DHT22;10975;47.872;12.972;2023-05-10T09:05:43;15.60;99.90
21627;DHT22;10975;47.872;12.972;2023-05-10T09:08:11;15.60;99.90
21627;DHT22;10975;47.872;12.972;2023-05-10T09:10:38;15.70;99.90
21627;DHT22;10975;47.872;12.972;2023-05-10T09:13:06;15.70;99.90
21627;DHT22;10975;47.872;12.972;2023-05-10T09:15:33;15.50;99.90
21627;DHT22;10975;47.872;12.972;2023-05-10T09:18:00;15.60;99.90
21627;DHT22;10975;47.872;12.972;2023-05-10T09:20:28;15.60;99.90
21627;DHT22;10975;47.872;12.972;2023-05-10T09:22:55;15.70;99.90
21627;DHT22;10975;47.872;12.972;2023-05-10T09:25:22;15.60;99.90
21627;DHT22;10975;47.872;12.972;2023-05-10T09:27:49;15.70;99.90
21627;DHT22;10975;47.872;12.972;2023-05-10T09:30:16;15.80;99.90
21627;DHT22;10975;47.872;12.972;2023-05-10T09:32:45;15.90;99.90
21627;DHT22;10975;47.872;12.972;2023-05-10T09:35:12;15.90;99.90
21627;DHT22;10975;47.872;12.972;2023-05-10T09:37:40;16.00;99.90
21627;DHT22;10975;47.872;12.972;2023-05-10T09:40:17;16.10;99.90
21627;DHT22;10975;47.872;12.972;2023-05-10T09:45:43;16.40;99.90
21627;DHT22;10975;47.872;12.972;2023-05-10T09:48:10;16.40;99.90
21627;DHT22;10975;47.872;12.972;2023-05-10T09:50:36;16.40;99.90
21627;DHT22;10975;47.872;12.972;2023-05-10T09:53:03;16.30;99.90
21627;DHT22;10975;47.872;12.972;2023-05-10T09:55:40;16.20;99.90
21627;DHT22;10975;47.872;12.972;2023-05-10T09:58:07;16.20;99.90
21627;DHT22;10975;47.872;12.972;2023-05-10T10:00:41;16.20;99.90
21627;DHT22;10975;47.872;12.972;2023-05-10T10:03:14;16.20;99.90
21627;DHT22;10975;47.872;12.972;2023-05-10T10:05:42;16.10;99.90
21627;DHT22;10975;47.872;12.972;2023-05-10T10:08:10;16.00;99.90
21627;DHT22;10975;47.872;12.972;2023-05-10T10:10:37;16.00;99.90
21627;DHT22;10975;47.872;12.972;2023-05-10T10:13:06;16.00;99.90
21627;DHT22;10975;47.872;12.972;2023-05-10T10:15:34;16.00;99.90
21627;DHT22;10975;47.872;12.972;2023-05-10T10:18:01;16.00;99.90
21627;DHT22;10975;47.872;12.972;2023-05-10T10:20:30;16.10;99.90
21627;DHT22;10975;47.872;12.972;2023-05-10T10:22:56;16.20;99.90
21627;DHT22;10975;47.872;12.972;2023-05-10T10:25:23;16.40;99.90
21627;DHT22;10975;47.872;12.972;2023-05-10T10:35:11;16.20;99.90
21627;DHT22;10975;47.872;12.972;2023-05-10T10:37:43;16.10;99.90
21627;DHT22;10975;47.872;12.972;2023-05-10T10:40:22;16.10;99.90
21627;DHT22;10975;47.872;12.972;2023-05-10T10:42:49;16.00;99.90
21627;DHT22;10975;47.872;12.972;2023-05-10T10:45:20;16.20;99.90
21627;DHT22;10975;47.872;12.972;2023-05-10T10:47:47;16.40;99.90
21627;DHT22;10975;47.872;12.972;2023-05-10T10:50:14;16.50;99.90
21627;DHT22;10975;47.872;12.972;2023-05-10T10:52:43;16.60;99.90
21627;DHT22;10975;47.872;12.972;2023-05-10T10:55:13;16.70;99.90
21627;DHT22;10975;47.872;12.972;2023-05-10T11:00:21;16.80;99.90
21627;DHT22;10975;47.872;12.972;2023-05-10T11:02:49;16.90;99.90
21627;DHT22;10975;47.872;12.972;2023-05-10T11:05:23;17.10;99.90
21627;DHT22;10975;47.872;12.972;2023-05-10T11:07:56;17.30;99.90
21627;DHT22;10975;47.872;12.972;2023-05-10T11:10:24;17.40;99.90
21627;DHT22;10975;47.872;12.972;2023-05-10T11:13:00;17.60;99.90
21627;DHT22;10975;47.872;12.972;2023-05-10T11:15:34;17.70;99.90
21627;DHT22;10975;47.872;12.972;2023-05-10T11:20:44;17.80;99.90
21627;DHT22;10975;47.872;12.972;2023-05-10T11:23:16;18.00;99.90
21627;DHT22;10975;47.872;12.972;2023-05-10T11:25:44;18.20;99.90
21627;DHT22;10975;47.872;12.972;2023-05-10T11:28:12;18.30;99.90
21627;DHT22;10975;47.872;12.972;2023-05-10T11:30:39;18.30;99.90
21627;DHT22;10975;47.872;12.972;2023-05-10T11:33:06;18.00;99.90
21627;DHT22;10975;47.872;12.972;2023-05-10T11:35:37;17.90;99.90
21627;DHT22;10975;47.872;12.972;2023-05-10T11:38:08;18.10;99.90
21627;DHT22;10975;47.872;12.972;2023-05-10T11:40:35;18.40;99.90
21627;DHT22;10975;47.872;12.972;2023-05-10T11:43:02;18.60;99.90
21627;DHT22;10975;47.872;12.972;2023-05-10T11:45:29;18.70;99.90
21627;DHT22;10975;47.872;12.972;2023-05-10T11:47:58;18.70;99.90
21627;DHT22;10975;47.872;12.972;2023-05-10T11:50:25;18.40;99.90
21627;DHT22;10975;47.872;12.972;2023-05-10T11:52:55;18.20;99.90
21627;DHT22;10975;47.872;12.972;2023-05-10T11:55:22;18.20;99.90
21627;DHT22;10975;47.872;12.972;2023-05-10T11:57:53;18.40;99.90
21627;DHT22;10975;47.872;12.972;2023-05-10T12:00:20;18.70;99.90
21627;DHT22;10975;47.872;12.972;2023-05-10T12:02:48;18.80;99.90
21627;DHT22;10975;47.872;12.972;2023-05-10T12:05:15;18.90;99.90
21627;DHT22;10975;47.872;12.972;2023-05-10T12:07:42;19.00;99.90
21627;DHT22;10975;47.872;12.972;2023-05-10T12:10:12;19.20;99.90
21627;DHT22;10975;47.872;12.972;2023-05-10T12:12:45;19.20;99.90
21627;DHT22;10975;47.872;12.972;2023-05-10T12:15:19;19.30;99.90
21627;DHT22;10975;47.872;12.972;2023-05-10T12:17:46;19.40;99.90
21627;DHT22;10975;47.872;12.972;2023-05-10T12:20:17;19.50;99.90
21627;DHT22;10975;47.872;12.972;2023-05-10T12:22:57;19.60;99.90
21627;DHT22;10975;47.872;12.972;2023-05-10T12:25:29;19.60;99.90
21627;DHT22;10975;47.872;12.972;2023-05-10T12:27:57;19.50;99.90
21627;DHT22;10975;47.872;12.972;2023-05-10T12:30:24;19.50;99.90
21627;DHT22;10975;47.872;12.972;2023-05-10T12:32:52;19.00;99.90
21627;DHT22;10975;47.872;12.972;2023-05-10T12:35:19;18.90;99.90
21627;DHT22;10975;47.872;12.972;2023-05-10T12:37:50;18.90;99.90
21627;DHT22;10975;47.872;12.972;2023-05-10T12:40:17;18.60;99.90
21627;DHT22;10975;47.872;12.972;2023-05-10T12:42:44;18.50;99.90
21627;DHT22;10975;47.872;12.972;2023-05-10T12:45:11;18.60;99.90
21627;DHT22;10975;47.872;12.972;2023-05-10T12:47:38;18.60;99.90
21627;DHT22;10975;47.872;12.972;2023-05-10T12:50:08;18.70;99.90
21627;DHT22;10975;47.872;12.972;2023-05-10T12:52:35;18.70;99.90
21627;DHT22;10975;47.872;12.972;2023-05-10T12:55:02;18.70;99.90
21627;DHT22;10975;47.872;12.972;2023-05-10T12:57:29;18.50;99.90
21627;DHT22;10975;47.872;12.972;2023-05-10T12:59:56;18.40;99.90
21627;DHT22;10975;47.872;12.972;2023-05-10T13:02:23;18.40;99.90
21627;DHT22;10975;47.872;12.972;2023-05-10T13:04:50;18.40;99.90
21627;DHT22;10975;47.872;12.972;2023-05-10T13:07:17;18.30;99.90
21627;DHT22;10975;47.872;12.972;2023-05-10T13:09:44;18.30;99.90
21627;DHT22;10975;47.872;12.972;2023-05-10T13:12:10;18.30;99.90
21627;DHT22;10975;47.872;12.972;2023-05-10T13:14:37;18.20;99.90
21627;DHT22;10975;47.872;12.972;2023-05-10T13:17:04;18.20;99.90
21627;DHT22;10975;47.872;12.972;2023-05-10T13:19:31;18.10;99.90
21627;DHT22;10975;47.872;12.972;2023-05-10T13:21:58;18.10;99.90
21627;DHT22;10975;47.872;12.972;2023-05-10T13:24:24;18.20;99.90
21627;DHT22;10975;47.872;12.972;2023-05-10T13:26:51;18.20;99.90
21627;DHT22;10975;47.872;12.972;2023-05-10T13:29:18;18.20;99.90
21627;DHT22;10975;47.872;12.972;2023-05-10T13:31:45;18.20;99.90
21627;DHT22;10975;47.872;12.972;2023-05-10T13:34:12;18.20;99.90
21627;DHT22;10975;47.872;12.972;2023-05-10T13:36:39;18.20;99.90
21627;DHT22;10975;47.872;12.972;2023-05-10T13:39:05;18.20;99.90
21627;DHT22;10975;47.872;12.972;2023-05-10T13:41:32;18.00;99.90
21627;DHT22;10975;47.872;12.972;2023-05-10T13:43:59;17.70;99.90
21627;DHT22;10975;47.872;12.972;2023-05-10T13:46:26;17.50;99.90
21627;DHT22;10975;47.872;12.972;2023-05-10T13:48:52;17.30;99.90
21627;DHT22;10975;47.872;12.972;2023-05-10T13:51:19;17.10;99.90
21627;DHT22;10975;47.872;12.972;2023-05-10T13:53:46;17.00;99.90
21627;DHT22;10975;47.872;12.972;2023-05-10T13:56:13;16.90;99.90
21627;DHT22;10975;47.872;12.972;2023-05-10T13:58:40;16.80;99.90
21627;DHT22;10975;47.872;12.972;2023-05-10T14:01:07;16.00;99.90
21627;DHT22;10975;47.872;12.972;2023-05-10T14:03:34;15.20;99.90
21627;DHT22;10975;47.872;12.972;2023-05-10T14:06:01;14.70;99.90
21627;DHT22;10975;47.872;12.972;2023-05-10T14:08:27;14.50;99.90
21627;DHT22;10975;47.872;12.972;2023-05-10T14:10:54;14.30;99.90
21627;DHT22;10975;47.872;12.972;2023-05-10T14:13:23;14.10;99.90
21627;DHT22;10975;47.872;12.972;2023-05-10T14:15:50;14.10;99.90
21627;DHT22;10975;47.872;12.972;2023-05-10T14:18:17;14.10;99.90
21627;DHT22;10975;47.872;12.972;2023-05-10T14:20:45;14.00;99.90
21627;DHT22;10975;47.872;12.972;2023-05-10T14:23:12;14.00;99.90
21627;DHT22;10975;47.872;12.972;2023-05-10T14:25:42;14.00;99.90
21627;DHT22;10975;47.872;12.972;2023-05-10T14:28:09;14.00;99.90
21627;DHT22;10975;47.872;12.972;2023-05-10T14:30:36;14.10;99.90
21627;DHT22;10975;47.872;12.972;2023-05-10T14:33:03;14.00;99.90
21627;DHT22;10975;47.872;12.972;2023-05-10T14:35:29;14.00;99.90
21627;DHT22;10975;47.872;12.972;2023-05-10T14:37:57;14.00;99.90
21627;DHT22;10975;47.872;12.972;2023-05-10T14:40:25;14.00;99.90
21627;DHT22;10975;47.872;12.972;2023-05-10T14:42:52;14.00;99.90
21627;DHT22;10975;47.872;12.972;2023-05-10T14:45:20;13.90;99.90
21627;DHT22;10975;47.872;12.972;2023-05-10T14:47:46;14.00;99.90
21627;DHT22;10975;47.872;12.972;2023-05-10T14:50:13;14.00;99.90
21627;DHT22;10975;47.872;12.972;2023-05-10T14:53:00;14.00;99.90
21627;DHT22;10975;47.872;12.972;2023-05-10T14:55:27;14.00;99.90
21627;DHT22;10975;47.872;12.972;2023-05-10T14:57:53;14.00;99.90
21627;DHT22;10975;47.872;12.972;2023-05-10T15:00:20;14.10;99.90
21627;DHT22;10975;47.872;12.972;2023-05-10T15:02:48;14.10;99.90
21627;DHT22;10975;47.872;12.972;2023-05-10T15:05:15;14.20;99.90
21627;DHT22;10975;47.872;12.972;2023-05-10T15:07:43;14.30;99.90
21627;DHT22;10975;47.872;12.972;2023-05-10T15:10:10;14.40;99.90
21627;DHT22;10975;47.872;12.972;2023-05-10T15:12:37;14.40;99.90
21627;DHT22;10975;47.872;12.972;2023-05-10T15:15:04;14.60;99.90
21627;DHT22;10975;47.872;12.972;2023-05-10T15:17:32;14.60;99.90
21627;DHT22;10975;47.872;12.972;2023-05-10T15:19:58;14.60;99.90
21627;DHT22;10975;47.872;12.972;2023-05-10T15:22:25;14.50;99.90
21627;DHT22;10975;47.872;12.972;2023-05-10T15:24:54;14.50;99.90
21627;DHT22;10975;47.872;12.972;2023-05-10T15:27:21;14.40;99.90
21627;DHT22;10975;47.872;12.972;2023-05-10T15:29:47;14.30;99.90
21627;DHT22;10975;47.872;12.972;2023-05-10T15:32:14;14.20;99.90
21627;DHT22;10975;47.872;12.972;2023-05-10T15:34:41;14.00;99.90
21627;DHT22;10975;47.872;12.972;2023-05-10T15:37:07;14.00;99.90
21627;DHT22;10975;47.872;12.972;2023-05-10T15:39:34;14.00;99.90
21627;DHT22;10975;47.872;12.972;2023-05-10T15:42:01;14.10;99.90
21627;DHT22;10975;47.872;12.972;2023-05-10T15:44:28;14.20;99.90
21627;DHT22;10975;47.872;12.972;2023-05-10T15:46:54;14.30;99.90
21627;DHT22;10975;47.872;12.972;2023-05-10T15:49:21;14.20;99.90
21627;DHT22;10975;47.872;12.972;2023-05-10T15:51:48;14.20;99.90